Time;durP1;ratioP1;P1;durP2;ratioP2;P2;SDS_P1;SDS_P2;PMS_P1;PMS_P2;Temp;Humidity;BMP_temperature;BMP_pressure;BME280_temperature;BME280_humidity;BME280_pressure;Samples;Min_cycle;Max_cycle;Signal;HPM_P1;HPM_P2
2023/04/14 00:01:04;;;;;;;12.77;7.43;;;5.70;99.90;;;;;;5093753;28;20185;-60
2023/04/14 00:03:31;;;;;;;10.70;7.72;;;5.70;99.90;;;;;;5093330;28;20196;-61
2023/04/14 00:05:58;;;;;;;9.80;6.53;;;5.60;99.90;;;;;;5094014;28;20199;-61
2023/04/14 00:08:24;;;;;;;8.50;6.55;;;5.60;99.90;;;;;;5093267;28;20699;-62
2023/04/14 00:10:51;;;;;;;8.70;6.22;;;5.60;99.90;;;;;;5093628;28;20286;-61
2023/04/14 00:13:18;;;;;;;8.68;6.10;;;5.60;99.90;;;;;;5093403;28;20203;-61
2023/04/14 00:15:45;;;;;;;9.65;7.05;;;5.50;99.90;;;;;;5093196;28;20602;-59
2023/04/14 00:18:13;;;;;;;12.35;6.43;;;5.50;99.90;;;;;;5093709;28;20204;-61
2023/04/14 00:20:40;;;;;;;8.50;6.35;;;5.50;99.90;;;;;;5094372;28;20216;-59
2023/04/14 00:23:06;;;;;;;8.85;6.60;;;5.50;99.90;;;;;;5098978;28;20197;-60
2023/04/14 00:25:33;;;;;;;8.68;6.47;;;5.50;99.90;;;;;;5093250;28;20282;-60
2023/04/14 00:28:00;;;;;;;9.98;6.72;;;5.40;99.90;;;;;;5097076;28;20207;-61
2023/04/14 00:30:27;;;;;;;15.80;6.60;;;5.40;99.90;;;;;;5097741;28;20216;-61
2023/04/14 00:32:54;;;;;;;10.40;6.50;;;5.40;99.90;;;;;;5097543;28;20196;-61
2023/04/14 00:35:23;;;;;;;8.52;6.68;;;5.30;99.90;;;;;;5097551;28;20580;-61
2023/04/14 00:37:50;;;;;;;9.25;7.22;;;5.30;99.90;;;;;;5097120;28;20702;-61
2023/04/14 00:40:17;;;;;;;8.90;6.65;;;5.30;99.90;;;;;;5097591;28;20248;-61
2023/04/14 00:42:45;;;;;;;10.20;7.03;;;5.30;99.90;;;;;;5097741;28;20200;-60
2023/04/14 00:45:12;;;;;;;9.82;7.90;;;5.20;99.90;;;;;;5097435;28;20689;-60
2023/04/14 00:47:39;;;;;;;11.30;7.68;;;5.20;99.90;;;;;;5097547;28;20197;-60
2023/04/14 00:50:07;;;;;;;9.23;6.78;;;5.20;99.90;;;;;;5097448;28;20224;-61
2023/04/14 00:52:37;;;;;;;9.20;7.40;;;5.20;99.90;;;;;;5098290;28;20209;-59
2023/04/14 00:55:05;;;;;;;9.43;7.00;;;5.20;99.90;;;;;;5097436;28;20200;-60
2023/04/14 00:57:32;;;;;;;12.20;7.38;;;5.10;99.90;;;;;;5097145;28;20216;-60
2023/04/14 01:00:00;;;;;;;11.57;7.70;;;5.10;99.90;;;;;;5097176;28;20232;-59
2023/04/14 01:02:27;;;;;;;9.70;7.43;;;5.10;99.90;;;;;;5097610;28;20666;-60
2023/04/14 01:04:54;;;;;;;8.45;7.53;;;5.10;99.90;;;;;;5097464;28;20200;-61
2023/04/14 01:07:22;;;;;;;8.77;7.03;;;5.00;99.90;;;;;;5097138;28;20206;-60
2023/04/14 01:09:51;;;;;;;9.82;8.00;;;5.00;99.90;;;;;;5096988;28;20592;-60
2023/04/14 01:12:34;;;;;;;7.90;7.05;;;5.00;99.90;;;;;;5097021;28;20206;-60
2023/04/14 01:15:10;;;;;;;10.18;6.85;;;5.00;99.90;;;;;;5096974;28;20238;-60
2023/04/14 01:17:44;;;;;;;9.10;6.90;;;4.90;99.90;;;;;;5096548;28;20200;-61
2023/04/14 01:20:21;;;;;;;8.02;7.15;;;4.90;99.90;;;;;;5096562;28;20701;-60
2023/04/14 01:22:51;;;;;;;7.72;6.63;;;4.80;99.90;;;;;;5096280;28;20192;-60
2023/04/14 01:26:00;;;;;;;10.90;7.03;;;4.80;99.90;;;;;;5096010;28;20288;-61
2023/04/14 01:28:42;;;;;;;12.32;7.75;;;4.80;99.90;;;;;;5096272;28;20220;-60
2023/04/14 01:31:25;;;;;;;11.43;7.50;;;4.80;99.90;;;;;;5096258;28;20184;-61
2023/04/14 01:33:57;;;;;;;8.95;7.10;;;4.80;99.90;;;;;;5096379;28;20188;-60
2023/04/14 01:36:30;;;;;;;10.18;6.88;;;4.70;99.90;;;;;;5096027;28;20209;-60
2023/04/14 01:38:58;;;;;;;10.15;7.30;;;4.70;99.90;;;;;;5096914;28;20228;-60
2023/04/14 01:41:28;;;;;;;11.10;7.13;;;4.70;99.90;;;;;;5097540;28;20196;-59
2023/04/14 01:43:55;;;;;;;9.48;7.15;;;4.70;99.90;;;;;;5096008;28;20268;-60
2023/04/14 01:46:23;;;;;;;10.90;8.05;;;4.60;99.90;;;;;;5096651;28;20557;-59
2023/04/14 01:48:51;;;;;;;7.25;6.28;;;4.60;99.90;;;;;;5096569;28;20224;-61
2023/04/14 01:51:19;;;;;;;8.38;6.78;;;4.60;99.90;;;;;;5096404;28;20212;-60
2023/04/14 01:53:49;;;;;;;12.30;8.35;;;4.60;99.90;;;;;;5095875;28;20686;-60
2023/04/14 01:56:17;;;;;;;13.48;8.13;;;4.60;99.90;;;;;;5096771;28;20200;-61
2023/04/14 01:58:46;;;;;;;10.27;8.82;;;4.60;99.90;;;;;;5097184;28;20312;-60
2023/04/14 02:01:13;;;;;;;12.18;8.20;;;4.60;99.90;;;;;;5099016;28;20265;-63
2023/04/14 02:03:43;;;;;;;12.40;8.10;;;4.50;99.90;;;;;;5098650;28;20210;-64
2023/04/14 02:06:12;;;;;;;11.27;8.60;;;4.50;99.90;;;;;;5097572;28;20196;-63
2023/04/14 02:08:41;;;;;;;13.00;8.93;;;4.50;99.90;;;;;;5098867;28;20294;-64
2023/04/14 02:11:09;;;;;;;10.38;8.20;;;4.50;99.90;;;;;;5096302;28;20211;-63
2023/04/14 02:13:40;;;;;;;12.15;8.15;;;4.50;99.90;;;;;;5096350;28;20200;-64
2023/04/14 02:16:10;;;;;;;13.88;8.20;;;4.40;99.90;;;;;;5095263;28;20681;-62
2023/04/14 02:18:39;;;;;;;12.80;8.30;;;4.40;99.90;;;;;;5095710;28;20253;-61
2023/04/14 02:21:09;;;;;;;12.63;8.70;;;4.40;99.90;;;;;;5095964;28;20196;-62
2023/04/14 02:23:36;;;;;;;11.77;7.75;;;4.40;99.90;;;;;;5096104;28;20254;-62
2023/04/14 02:26:10;;;;;;;11.65;8.85;;;4.40;99.90;;;;;;5095860;28;20211;-63
2023/04/14 02:28:48;;;;;;;10.07;8.63;;;4.40;99.90;;;;;;5095814;28;20189;-63
2023/04/14 02:31:22;;;;;;;11.77;9.45;;;4.40;99.90;;;;;;5096013;28;20574;-62
2023/04/14 02:33:54;;;;;;;10.88;9.57;;;4.40;99.90;;;;;;5095641;28;20643;-64
2023/04/14 02:36:31;;;;;;;10.27;8.43;;;4.40;99.90;;;;;;5095794;28;20638;-62
2023/04/14 02:39:01;;;;;;;14.27;8.35;;;4.30;99.90;;;;;;5095694;28;20216;-61
2023/04/14 02:41:30;;;;;;;14.38;8.45;;;4.30;99.90;;;;;;5096327;28;20657;-63
2023/04/14 02:44:05;;;;;;;14.25;8.70;;;4.20;99.90;;;;;;5100195;28;20230;-63
2023/04/14 02:46:35;;;;;;;12.93;8.73;;;4.20;99.90;;;;;;5099695;28;20203;-63
2023/04/14 02:49:04;;;;;;;14.75;9.05;;;4.20;99.90;;;;;;5098976;28;20220;-62
2023/04/14 02:51:35;;;;;;;13.35;8.70;;;4.20;99.90;;;;;;5098311;28;20694;-63
2023/04/14 02:54:03;;;;;;;11.32;9.20;;;4.20;99.90;;;;;;5099333;28;20181;-63
2023/04/14 02:56:30;;;;;;;10.40;8.20;;;4.20;99.90;;;;;;5099196;28;20295;-63
2023/04/14 02:58:58;;;;;;;11.60;7.43;;;4.20;99.90;;;;;;5102025;28;20709;-63
2023/04/14 03:01:25;;;;;;;12.57;8.10;;;4.20;99.90;;;;;;5102001;28;20252;-62
2023/04/14 03:03:53;;;;;;;12.40;7.95;;;4.10;99.90;;;;;;5102039;28;20283;-63
2023/04/14 03:06:21;;;;;;;14.07;8.40;;;4.10;99.90;;;;;;5099110;28;20279;-63
2023/04/14 03:08:51;;;;;;;11.52;8.98;;;4.10;99.90;;;;;;5100974;28;20302;-63
2023/04/14 03:11:18;;;;;;;12.30;9.05;;;4.10;99.90;;;;;;5097379;28;20207;-61
2023/04/14 03:13:46;;;;;;;11.82;9.05;;;4.10;99.90;;;;;;5095861;28;20651;-62
2023/04/14 03:16:13;;;;;;;9.88;8.93;;;4.10;99.90;;;;;;5095818;28;20196;-63
2023/04/14 03:18:41;;;;;;;15.55;9.68;;;4.00;99.90;;;;;;5095715;28;20387;-62
2023/04/14 03:21:08;;;;;;;12.80;9.93;;;4.00;99.90;;;;;;5099891;28;20264;-63
2023/04/14 03:23:36;;;;;;;12.85;8.90;;;4.00;99.90;;;;;;5099666;28;20207;-61
2023/04/14 03:26:05;;;;;;;11.15;9.38;;;4.00;99.90;;;;;;5097699;28;20287;-62
2023/04/14 03:28:35;;;;;;;12.63;9.55;;;3.90;99.90;;;;;;5096046;28;20287;-63
2023/04/14 03:31:04;;;;;;;15.50;10.70;;;4.00;99.90;;;;;;5096094;28;20226;-63
2023/04/14 03:33:32;;;;;;;14.50;10.27;;;3.90;99.90;;;;;;5096201;28;20232;-63
2023/04/14 03:36:00;;;;;;;13.20;9.07;;;3.90;99.90;;;;;;5096573;28;20204;-63
2023/04/14 03:38:28;;;;;;;12.40;9.57;;;3.90;99.90;;;;;;5096631;28;20242;-62
2023/04/14 03:40:59;;;;;;;15.48;10.20;;;3.80;99.90;;;;;;5096283;28;20294;-62
2023/04/14 03:43:32;;;;;;;15.07;9.07;;;3.80;99.90;;;;;;5098109;28;20200;-62
2023/04/14 03:45:59;;;;;;;16.58;10.05;;;3.80;99.90;;;;;;5101220;28;20191;-60
2023/04/14 03:48:29;;;;;;;15.88;8.82;;;3.80;99.90;;;;;;5095681;28;20272;-61
2023/04/14 03:50:58;;;;;;;14.10;10.07;;;3.80;99.90;;;;;;5095492;28;20565;-62
2023/04/14 03:53:26;;;;;;;13.77;9.35;;;3.70;99.90;;;;;;5094520;28;20227;-62
2023/04/14 03:55:58;;;;;;;12.98;10.27;;;3.70;99.90;;;;;;5093871;28;20550;-63
2023/04/14 03:58:28;;;;;;;10.75;8.32;;;3.70;99.90;;;;;;5094269;28;20201;-63
2023/04/14 04:00:56;;;;;;;13.52;9.30;;;3.70;99.90;;;;;;5093723;28;20208;-62
2023/04/14 04:03:25;;;;;;;10.50;8.93;;;3.70;99.90;;;;;;5093911;28;20214;-62
2023/04/14 04:05:53;;;;;;;13.20;9.13;;;3.60;99.90;;;;;;5094266;28;20200;-63
2023/04/14 04:11:34;;;;;;;12.35;8.38;;;3.60;99.90;;;;;;5112277;27;20555;-64
2023/04/14 04:14:04;;;;;;;20.58;9.27;;;3.60;99.90;;;;;;5112547;28;20194;-64
2023/04/14 04:16:32;;;;;;;14.32;8.40;;;3.60;99.90;;;;;;5113099;28;20199;-64
2023/04/14 04:18:59;;;;;;;13.50;9.35;;;3.50;99.90;;;;;;5126534;28;20220;-64
2023/04/14 04:21:27;;;;;;;16.67;9.07;;;3.50;99.90;;;;;;5124903;28;20223;-64
2023/04/14 04:23:56;;;;;;;14.73;8.68;;;3.50;99.90;;;;;;5124854;28;20213;-63
2023/04/14 04:26:25;;;;;;;14.25;7.82;;;3.40;99.90;;;;;;5117226;28;20773;-63
2023/04/14 04:28:55;;;;;;;12.80;9.30;;;3.40;99.90;;;;;;5116404;28;20287;-63
2023/04/14 04:31:24;;;;;;;16.23;9.93;;;3.40;99.90;;;;;;5116489;28;20617;-64
2023/04/14 04:33:51;;;;;;;13.48;9.32;;;3.40;99.90;;;;;;5114130;28;20205;-64
2023/04/14 04:36:19;;;;;;;12.15;8.88;;;3.40;99.90;;;;;;5112156;28;20203;-63
2023/04/14 04:38:48;;;;;;;10.65;8.52;;;3.40;99.90;;;;;;5111425;28;20215;-67
2023/04/14 04:41:25;;;;;;;16.60;10.18;;;3.40;99.90;;;;;;5111528;28;20218;-63
2023/04/14 04:43:53;;;;;;;16.80;9.65;;;3.40;99.90;;;;;;5111472;28;20188;-64
2023/04/14 04:46:37;;;;;;;17.38;10.15;;;3.40;99.90;;;;;;5112007;28;20222;-63
2023/04/14 04:49:04;;;;;;;18.60;9.82;;;3.40;99.90;;;;;;5111261;28;20739;-64
2023/04/14 04:51:31;;;;;;;14.10;9.82;;;3.50;99.90;;;;;;5111523;28;20219;-63
2023/04/14 04:53:58;;;;;;;17.35;11.13;;;3.50;99.90;;;;;;5111496;28;20291;-63
2023/04/14 04:56:26;;;;;;;18.20;11.07;;;3.60;99.90;;;;;;5110978;28;20205;-64
2023/04/14 04:58:54;;;;;;;19.30;10.73;;;3.60;99.90;;;;;;5110985;28;20216;-62
2023/04/14 05:01:21;;;;;;;13.27;11.05;;;3.60;99.90;;;;;;5111622;28;20267;-63
2023/04/14 05:03:48;;;;;;;14.93;11.07;;;3.70;99.90;;;;;;5112661;28;20196;-63
2023/04/14 05:06:15;;;;;;;14.85;11.20;;;3.70;99.90;;;;;;5111642;28;20214;-63
2023/04/14 05:08:42;;;;;;;18.30;11.98;;;3.80;99.90;;;;;;5112905;28;20287;-63
2023/04/14 05:11:09;;;;;;;17.58;11.70;;;3.80;99.90;;;;;;5112058;28;20316;-62
2023/04/14 05:13:35;;;;;;;22.50;12.52;;;3.90;99.90;;;;;;5112205;28;20202;-64
2023/04/14 05:16:04;;;;;;;16.20;11.10;;;3.90;99.90;;;;;;5111909;28;20580;-64
2023/04/14 05:18:31;;;;;;;13.73;10.63;;;4.00;99.90;;;;;;5112988;28;20195;-62
2023/04/14 05:21:02;;;;;;;17.88;10.18;;;4.00;99.90;;;;;;5109868;28;20203;-65
2023/04/14 05:23:29;;;;;;;18.25;11.43;;;4.10;99.90;;;;;;5098362;28;20184;-63
2023/04/14 05:25:56;;;;;;;17.40;10.85;;;4.20;99.90;;;;;;5099896;28;20227;-63
2023/04/14 05:28:23;;;;;;;20.05;11.10;;;4.20;99.90;;;;;;5103076;28;20199;-64
2023/04/14 05:30:50;;;;;;;12.65;10.43;;;4.30;99.90;;;;;;5102355;28;20227;-64
2023/04/14 05:33:18;;;;;;;17.38;11.52;;;4.40;99.90;;;;;;5100204;28;20201;-63
2023/04/14 05:35:45;;;;;;;14.90;9.75;;;4.50;99.90;;;;;;5099639;28;20204;-64
2023/04/14 05:38:12;;;;;;;15.70;11.40;;;4.50;99.90;;;;;;5100009;28;20206;-62
2023/04/14 05:40:39;;;;;;;22.35;11.00;;;4.60;99.90;;;;;;5099939;28;20222;-64
2023/04/14 05:43:06;;;;;;;20.50;11.93;;;4.70;99.90;;;;;;5107053;28;20291;-62
2023/04/14 05:45:33;;;;;;;18.05;11.65;;;4.70;99.90;;;;;;5104409;28;20205;-63
2023/04/14 05:48:00;;;;;;;17.70;11.55;;;4.80;99.90;;;;;;5104803;28;20204;-63
2023/04/14 05:50:28;;;;;;;13.90;10.75;;;5.00;99.90;;;;;;5108004;28;20224;-63
2023/04/14 05:52:55;;;;;;;16.63;11.40;;;5.10;99.90;;;;;;5107405;28;20306;-63
2023/04/14 05:55:22;;;;;;;14.98;11.05;;;5.20;99.90;;;;;;5107194;28;20287;-64
2023/04/14 05:57:49;;;;;;;20.23;11.93;;;5.30;99.90;;;;;;5109504;28;20291;-63
2023/04/14 06:00:16;;;;;;;15.40;10.38;;;5.50;99.90;;;;;;5105923;28;20221;-62
2023/04/14 06:02:43;;;;;;;15.73;10.18;;;5.60;99.90;;;;;;5102732;28;20665;-63
2023/04/14 06:05:11;;;;;;;14.85;9.95;;;5.70;99.90;;;;;;5102250;28;20205;-64
2023/04/14 06:07:40;;;;;;;15.85;11.10;;;5.70;99.90;;;;;;5101466;28;20196;-63
2023/04/14 06:10:09;;;;;;;15.77;10.88;;;5.80;99.90;;;;;;5110274;28;20231;-63
2023/04/14 06:12:36;;;;;;;17.17;10.68;;;5.90;99.90;;;;;;5103426;28;20200;-64
2023/04/14 06:15:04;;;;;;;16.15;11.60;;;6.00;99.90;;;;;;5101020;28;20207;-63
2023/04/14 06:17:31;;;;;;;14.18;11.25;;;6.10;99.90;;;;;;5101332;28;20200;-64
2023/04/14 06:19:58;;;;;;;13.95;10.52;;;6.20;99.90;;;;;;5101255;28;20287;-62
2023/04/14 06:22:28;;;;;;;11.77;9.85;;;6.30;99.90;;;;;;5098499;28;20204;-64
2023/04/14 06:24:57;;;;;;;12.02;9.80;;;6.40;99.90;;;;;;5096061;28;20735;-63
2023/04/14 06:27:24;;;;;;;16.73;10.60;;;6.50;99.90;;;;;;5096432;28;20204;-65
2023/04/14 06:29:51;;;;;;;12.23;10.05;;;6.60;99.90;;;;;;5095599;28;20563;-64
2023/04/14 06:32:18;;;;;;;13.10;10.50;;;6.80;99.90;;;;;;5095677;28;20200;-64
2023/04/14 06:34:46;;;;;;;15.10;10.63;;;6.90;99.90;;;;;;5095597;28;20204;-63
2023/04/14 06:37:13;;;;;;;13.65;11.05;;;7.00;99.90;;;;;;5096095;28;20204;-63
2023/04/14 06:39:40;;;;;;;14.48;10.02;;;7.20;99.90;;;;;;5095544;28;20664;-62
2023/04/14 06:42:11;;;;;;;14.77;9.95;;;7.30;99.90;;;;;;5096379;28;20200;-63
2023/04/14 06:44:38;;;;;;;12.00;10.18;;;7.50;99.90;;;;;;5096666;28;20196;-62
2023/04/14 06:47:05;;;;;;;11.43;10.20;;;7.60;99.90;;;;;;5096216;28;20204;-62
2023/04/14 06:49:32;;;;;;;15.38;10.35;;;7.70;99.90;;;;;;5096614;28;20254;-63
2023/04/14 06:51:59;;;;;;;15.70;11.80;;;7.80;99.90;;;;;;5096527;28;20701;-64
2023/04/14 06:54:26;;;;;;;16.17;10.40;;;7.90;99.90;;;;;;5098206;28;20525;-64
2023/04/14 06:56:52;;;;;;;11.82;9.23;;;8.00;99.90;;;;;;5098732;28;20207;-63
2023/04/14 06:59:24;;;;;;;14.32;9.57;;;8.10;99.90;;;;;;5101293;28;20251;-63
2023/04/14 07:01:51;;;;;;;12.48;8.80;;;8.20;99.90;;;;;;5101036;28;20196;-64
2023/04/14 07:04:18;;;;;;;12.07;8.40;;;8.30;99.90;;;;;;5101161;28;20200;-62
2023/04/14 07:06:45;;;;;;;13.85;8.73;;;8.50;99.90;;;;;;5103328;28;20301;-63
2023/04/14 07:09:11;;;;;;;13.40;9.27;;;8.60;99.90;;;;;;5106443;28;20289;-63
2023/04/14 07:11:39;;;;;;;10.75;8.27;;;8.70;99.90;;;;;;5102837;28;20208;-63
2023/04/14 07:14:06;;;;;;;9.45;7.43;;;8.80;99.90;;;;;;5103237;28;20203;-64
2023/04/14 07:16:34;;;;;;;12.82;8.25;;;9.00;99.90;;;;;;5100707;28;20200;-63
2023/04/14 07:19:00;;;;;;;9.98;7.40;;;9.10;99.90;;;;;;5096747;28;20311;-63
2023/04/14 07:21:27;;;;;;;12.10;7.20;;;9.30;99.90;;;;;;5094529;28;20193;-63
2023/04/14 07:23:54;;;;;;;8.47;7.00;;;9.40;99.90;;;;;;5094533;28;20451;-66
2023/04/14 07:26:21;;;;;;;8.20;6.20;;;9.60;99.90;;;;;;5094835;28;20546;-66
2023/04/14 07:28:48;;;;;;;9.98;5.70;;;9.70;99.90;;;;;;5094653;28;20466;-66
2023/04/14 07:31:15;;;;;;;9.50;6.53;;;9.80;99.90;;;;;;5094602;28;20222;-66
2023/04/14 07:33:43;;;;;;;7.07;6.37;;;9.90;99.90;;;;;;5095464;28;20800;-66
2023/04/14 07:36:10;;;;;;;7.53;5.93;;;10.00;99.90;;;;;;5095166;28;20442;-66
2023/04/14 07:38:37;;;;;;;7.37;5.90;;;10.20;99.90;;;;;;5093846;28;20953;-66
2023/04/14 07:41:05;;;;;;;8.23;6.00;;;10.40;99.90;;;;;;5094109;28;20807;-66
2023/04/14 07:43:34;;;;;;;7.83;5.67;;;10.50;99.90;;;;;;5094566;28;20826;-67
2023/04/14 07:46:03;;;;;;;6.53;5.50;;;10.70;99.90;;;;;;5094286;28;20447;-66
2023/04/14 07:48:30;;;;;;;8.00;5.53;;;10.80;99.90;;;;;;5093927;28;20435;-66
2023/04/14 07:50:58;;;;;;;11.70;5.67;;;11.00;99.90;;;;;;5094277;28;20485;-66
2023/04/14 07:53:25;;;;;;;4.90;3.60;;;11.10;99.90;;;;;;5094916;28;20442;-65
2023/04/14 07:55:52;;;;;;;4.50;3.60;;;11.20;99.90;;;;;;5094700;28;20515;-66
2023/04/14 07:58:19;;;;;;;8.80;5.53;;;11.30;99.90;;;;;;5095495;28;20438;-66
2023/04/14 08:00:46;;;;;;;8.43;5.53;;;11.40;98.60;;;;;;5077070;22;20990;-61
2023/04/14 08:03:13;;;;;;;9.50;6.60;;;11.50;97.40;;;;;;5034818;28;20449;-61
2023/04/14 08:05:41;;;;;;;4.43;3.07;;;11.60;96.10;;;;;;5034485;28;20495;-61
2023/04/14 08:08:11;;;;;;;4.87;4.17;;;11.70;95.00;;;;;;5035110;28;20533;-61
2023/04/14 08:10:38;;;;;;;6.70;3.83;;;11.80;93.80;;;;;;5033412;28;21007;-62
2023/04/14 08:13:05;;;;;;;6.97;3.80;;;11.80;92.30;;;;;;5034005;28;20441;-61
2023/04/14 08:15:32;;;;;;;8.13;4.63;;;11.90;91.40;;;;;;5033766;28;20453;-59
2023/04/14 08:17:59;;;;;;;5.63;4.40;;;12.00;90.90;;;;;;5034533;28;20456;-62
2023/04/14 08:20:26;;;;;;;4.07;3.17;;;12.20;90.40;;;;;;5034272;28;20551;-62
2023/04/14 08:22:53;;;;;;;4.50;3.10;;;12.30;87.50;;;;;;5034179;28;20445;-62
2023/04/14 08:25:21;;;;;;;6.57;3.37;;;12.40;84.60;;;;;;5034622;28;20445;-61
2023/04/14 08:27:48;;;;;;;5.87;3.13;;;12.40;81.60;;;;;;5033808;28;20776;-61
2023/04/14 08:30:15;;;;;;;9.97;4.40;;;12.50;80.10;;;;;;5033272;28;20475;-61
2023/04/14 08:32:42;;;;;;;5.80;3.50;;;12.60;78.70;;;;;;5033381;28;20491;-61
2023/04/14 08:35:09;;;;;;;5.80;3.80;;;12.70;77.60;;;;;;5033257;28;20996;-61
2023/04/14 08:37:36;;;;;;;4.67;3.00;;;12.80;75.90;;;;;;5034274;28;20471;-61
2023/04/14 08:40:04;;;;;;;9.03;3.10;;;13.00;74.40;;;;;;5034020;28;20476;-61
2023/04/14 08:42:33;;;;;;;5.47;3.17;;;13.10;72.70;;;;;;5033594;28;20950;-62
2023/04/14 08:44:59;;;;;;;4.13;2.80;;;13.20;71.60;;;;;;5033895;28;20488;-62
2023/04/14 08:47:30;;;;;;;6.70;3.30;;;13.30;70.10;;;;;;5034306;28;20537;-60
2023/04/14 08:50:03;;;;;;;4.30;2.80;;;13.30;69.30;;;;;;5034887;28;20465;-61
2023/04/14 08:52:34;;;;;;;4.70;3.20;;;13.20;68.50;;;;;;5033792;28;20472;-61
2023/04/14 08:55:03;;;;;;;3.50;2.50;;;13.30;68.30;;;;;;5033615;28;20524;-61
2023/04/14 08:57:33;;;;;;;3.80;2.50;;;13.20;67.30;;;;;;5036067;28;20449;-62
2023/04/14 09:00:03;;;;;;;4.73;2.90;;;13.10;66.40;;;;;;5036669;28;20559;-60
2023/04/14 09:02:32;;;;;;;4.73;2.47;;;13.10;65.80;;;;;;5037377;28;20481;-60
2023/04/14 09:04:59;;;;;;;4.53;2.70;;;13.10;66.10;;;;;;5037227;28;20445;-61
2023/04/14 09:07:27;;;;;;;2.63;2.23;;;13.30;65.70;;;;;;5037325;28;20449;-61
2023/04/14 09:09:55;;;;;;;3.77;2.70;;;13.50;64.70;;;;;;5037265;28;20465;-61
2023/04/14 09:12:24;;;;;;;4.10;3.03;;;13.60;64.00;;;;;;5036912;28;20484;-60
2023/04/14 09:14:52;;;;;;;3.60;2.50;;;13.70;63.80;;;;;;5037598;28;20455;-60
2023/04/14 09:17:19;;;;;;;5.23;3.03;;;13.80;63.20;;;;;;5036856;28;20445;-61
2023/04/14 09:19:47;;;;;;;5.07;2.80;;;13.90;62.90;;;;;;5036599;28;20469;-61
2023/04/14 09:22:15;;;;;;;4.20;2.73;;;14.00;62.70;;;;;;5037332;28;20448;-60
2023/04/14 09:24:42;;;;;;;4.33;2.90;;;14.00;61.40;;;;;;5037357;28;20467;-60
2023/04/14 09:27:09;;;;;;;3.93;2.80;;;13.90;60.50;;;;;;5036944;28;20451;-62
2023/04/14 09:29:37;;;;;;;4.83;3.27;;;13.80;60.90;;;;;;5037200;28;20473;-60
2023/04/14 09:32:06;;;;;;;8.60;3.17;;;13.90;60.70;;;;;;5037008;28;20484;-61
2023/04/14 09:34:33;;;;;;;4.33;3.00;;;13.80;60.00;;;;;;5037254;28;20818;-61
2023/04/14 09:37:04;;;;;;;8.13;3.70;;;13.70;60.20;;;;;;5037665;28;20487;-61
2023/04/14 09:39:31;;;;;;;9.20;3.20;;;13.60;60.80;;;;;;5037746;28;20500;-63
2023/04/14 09:41:58;;;;;;;4.43;2.57;;;13.70;61.30;;;;;;5037627;28;20536;-65
2023/04/14 09:44:25;;;;;;;6.47;2.33;;;13.90;60.40;;;;;;5037695;28;20972;-63
2023/04/14 09:47:00;;;;;;;6.20;2.47;;;13.90;59.10;;;;;;5038383;28;20453;-67
2023/04/14 09:49:29;;;;;;;3.80;2.83;;;14.00;58.70;;;;;;5037214;28;20464;-64
2023/04/14 09:52:03;;;;;;;6.13;4.07;;;13.90;58.50;;;;;;5036359;28;20480;-64
2023/04/14 09:54:30;;;;;;;5.80;3.20;;;13.70;58.30;;;;;;5037111;28;20441;-61
2023/04/14 09:56:57;;;;;;;5.43;2.80;;;13.60;58.60;;;;;;5036693;28;20453;-64
2023/04/14 09:59:32;;;;;;;5.90;2.50;;;13.50;58.80;;;;;;5036405;28;20449;-64
2023/04/14 10:02:00;;;;;;;3.80;2.60;;;13.40;59.10;;;;;;5036574;28;20448;-68
2023/04/14 10:04:28;;;;;;;3.10;2.40;;;13.50;59.30;;;;;;5037997;28;20441;-69
2023/04/14 10:06:56;;;;;;;7.63;3.20;;;13.50;59.00;;;;;;5036950;28;20536;-63
2023/04/14 10:09:25;;;;;;;7.17;2.30;;;13.50;58.60;;;;;;5036293;28;20441;-64
2023/04/14 10:12:07;;;;;;;4.23;2.30;;;13.50;58.80;;;;;;5035597;28;20488;-67
2023/04/14 10:14:34;;;;;;;4.03;2.70;;;13.50;58.80;;;;;;5036821;28;20444;-64
2023/04/14 10:17:01;;;;;;;2.10;1.90;;;13.70;58.90;;;;;;5036436;28;20449;-69
2023/04/14 10:19:30;;;;;;;5.27;2.10;;;14.00;58.60;;;;;;5036999;28;20559;-70
2023/04/14 10:21:58;;;;;;;2.90;1.87;;;14.10;58.20;;;;;;5039273;28;20449;-68
2023/04/14 10:24:25;;;;;;;2.13;1.90;;;14.30;57.60;;;;;;5041517;28;20449;-68
2023/04/14 10:26:54;;;;;;;2.80;2.20;;;14.40;57.20;;;;;;5041212;28;20448;-68
2023/04/14 10:29:21;;;;;;;3.93;2.07;;;14.50;57.00;;;;;;5039499;28;20445;-67
2023/04/14 10:31:52;;;;;;;3.33;1.93;;;14.70;56.60;;;;;;5038036;28;20925;-66
2023/04/14 10:34:21;;;;;;;3.00;2.20;;;14.90;56.20;;;;;;5038152;28;20842;-68
2023/04/14 10:36:49;;;;;;;2.33;2.07;;;14.90;55.40;;;;;;5039060;28;20456;-69
2023/04/14 10:39:23;;;;;;;2.63;1.83;;;14.80;55.00;;;;;;5039201;28;20449;-66
2023/04/14 10:41:51;;;;;;;4.07;1.63;;;14.70;55.30;;;;;;5038804;28;20468;-65
2023/04/14 10:44:25;;;;;;;4.17;2.67;;;14.70;55.20;;;;;;5037222;28;20449;-65
2023/04/14 10:46:54;;;;;;;5.80;2.70;;;14.80;55.10;;;;;;5037787;28;20476;-65
2023/04/14 10:49:30;;;;;;;2.60;2.37;;;14.90;55.00;;;;;;5036691;28;20467;-66
2023/04/14 10:52:00;;;;;;;7.90;2.30;;;15.10;54.80;;;;;;5038344;28;20465;-65
2023/04/14 10:54:27;;;;;;;4.30;1.87;;;15.20;54.40;;;;;;5038886;28;20421;-66
2023/04/14 10:57:13;;;;;;;5.70;2.00;;;15.20;54.10;;;;;;5037547;28;20476;-65
2023/04/14 10:59:42;;;;;;;3.23;1.83;;;15.10;53.50;;;;;;5036630;28;20484;-65
2023/04/14 11:02:26;;;;;;;3.70;2.10;;;15.10;53.40;;;;;;5036650;28;20445;-65
2023/04/14 11:05:04;;;;;;;4.27;2.20;;;15.00;53.50;;;;;;5036301;28;20425;-65
2023/04/14 11:07:37;;;;;;;4.47;2.20;;;15.10;53.60;;;;;;5036852;28;20440;-64
2023/04/14 11:10:30;;;;;;;3.63;2.70;;;15.10;53.50;;;;;;5036218;28;20453;-65
2023/04/14 11:13:02;;;;;;;5.43;2.50;;;15.20;53.60;;;;;;5017865;28;20485;-65
2023/04/14 11:15:49;;;;;;;5.10;2.57;;;15.40;53.00;;;;;;5036219;28;20816;-67
2023/04/14 11:18:19;;;;;;;4.50;2.87;;;15.60;52.60;;;;;;5035642;28;20431;-65
2023/04/14 11:20:45;;;;;;;7.80;3.70;;;15.70;52.20;;;;;;5034735;28;20548;-64
2023/04/14 11:23:15;;;;;;;5.10;3.37;;;15.80;52.00;;;;;;5035697;28;20434;-65
2023/04/14 11:25:42;;;;;;;4.70;2.70;;;15.90;52.00;;;;;;5035505;28;20441;-65
2023/04/14 11:28:09;;;;;;;5.30;2.50;;;16.10;51.80;;;;;;5035834;28;20455;-66
2023/04/14 11:30:36;;;;;;;4.27;2.90;;;16.20;51.30;;;;;;5034981;28;21020;-65
2023/04/14 11:33:03;;;;;;;5.50;2.30;;;16.20;51.50;;;;;;5035214;28;20571;-65
2023/04/14 11:35:30;;;;;;;3.17;2.30;;;16.10;51.30;;;;;;5036025;28;20625;-64
2023/04/14 11:37:59;;;;;;;3.20;2.20;;;16.10;51.30;;;;;;5036692;28;20453;-65
2023/04/14 11:40:28;;;;;;;3.90;2.43;;;16.10;50.90;;;;;;5036989;28;20465;-65
2023/04/14 11:42:56;;;;;;;4.27;2.43;;;16.10;50.40;;;;;;5036839;28;20810;-64
2023/04/14 11:45:27;;;;;;;3.20;2.27;;;16.10;49.80;;;;;;5036426;28;20451;-65
2023/04/14 11:47:58;;;;;;;3.30;2.50;;;16.10;49.60;;;;;;5038589;28;20496;-64
2023/04/14 11:50:26;;;;;;;3.10;2.60;;;16.30;49.50;;;;;;5038112;28;20544;-65
2023/04/14 11:52:56;;;;;;;2.73;2.47;;;16.50;49.20;;;;;;5037310;28;20559;-65
2023/04/14 11:55:23;;;;;;;2.90;2.60;;;17.00;48.60;;;;;;5036599;28;20453;-64
2023/04/14 11:57:52;;;;;;;3.37;2.50;;;17.70;47.40;;;;;;5035727;28;20465;-64
2023/04/14 12:00:19;;;;;;;3.80;2.70;;;18.50;46.40;;;;;;5037147;28;20512;-63
2023/04/14 12:02:46;;;;;;;4.30;2.47;;;19.00;45.00;;;;;;5039283;28;20532;-63
2023/04/14 12:05:18;;;;;;;2.53;2.33;;;19.40;44.30;;;;;;5036611;28;20528;-65
2023/04/14 12:07:47;;;;;;;4.30;2.40;;;19.60;43.30;;;;;;5036336;28;20429;-64
2023/04/14 12:10:15;;;;;;;2.70;1.93;;;19.70;42.40;;;;;;5036292;28;20465;-65
2023/04/14 12:12:41;;;;;;;3.33;2.30;;;19.70;42.40;;;;;;5035688;28;20487;-64
2023/04/14 12:15:12;;;;;;;3.93;2.73;;;20.00;41.70;;;;;;5038049;28;20797;-64
2023/04/14 12:17:40;;;;;;;7.60;2.80;;;20.30;41.10;;;;;;5038773;28;20430;-64
2023/04/14 12:20:14;;;;;;;3.17;2.37;;;20.30;40.40;;;;;;5038796;28;20512;-64
2023/04/14 12:22:41;;;;;;;3.87;2.40;;;20.10;40.30;;;;;;5036962;28;20471;-64
2023/04/14 12:25:11;;;;;;;4.40;2.37;;;19.50;40.60;;;;;;5037060;28;20445;-64
2023/04/14 12:27:38;;;;;;;5.63;3.10;;;18.90;41.50;;;;;;5037625;28;20441;-65
2023/04/14 12:30:06;;;;;;;3.67;2.80;;;18.40;42.50;;;;;;5040286;28;20543;-63
2023/04/14 12:32:40;;;;;;;3.10;2.43;;;18.00;43.20;;;;;;5040694;28;20497;-63
2023/04/14 12:35:07;;;;;;;3.60;3.30;;;17.60;43.80;;;;;;5044048;28;20429;-64
2023/04/14 12:37:34;;;;;;;4.93;3.37;;;17.40;44.40;;;;;;5043850;28;20533;-65
2023/04/14 12:40:05;;;;;;;4.20;3.10;;;17.20;45.10;;;;;;5044102;28;20993;-64
2023/04/14 12:42:44;;;;;;;5.00;3.13;;;17.00;45.50;;;;;;5042890;28;20432;-65
2023/04/14 12:45:11;;;;;;;6.90;2.50;;;16.60;46.40;;;;;;5044753;28;20528;-65
2023/04/14 12:47:39;;;;;;;5.20;3.90;;;16.50;47.00;;;;;;5043437;28;20488;-64
2023/04/14 12:50:22;;;;;;;4.00;3.50;;;16.40;47.40;;;;;;5044602;28;20557;-64
2023/04/14 12:52:49;;;;;;;5.23;4.20;;;16.20;48.00;;;;;;5043661;28;20464;-65
2023/04/14 12:55:20;;;;;;;5.80;4.13;;;16.20;48.80;;;;;;5044563;28;20473;-65
2023/04/14 12:57:47;;;;;;;4.50;3.90;;;16.10;49.40;;;;;;5043710;28;20488;-66